sensor_id;sensor_type;location;lat;lon;timestamp;temperature;humidity
21568;DHT22;10944;42.590;12.630;2022-09-09T00:03:54;20.40;99.90
21568;DHT22;10944;42.590;12.630;2022-09-09T00:06:32;20.30;99.90
21568;DHT22;10944;42.590;12.630;2022-09-09T00:09:10;20.40;99.90
21568;DHT22;10944;42.590;12.630;2022-09-09T00:11:51;20.30;99.90
21568;DHT22;10944;42.590;12.630;2022-09-09T00:17:14;20.30;99.90
21568;DHT22;10944;42.590;12.630;2022-09-09T00:20:01;20.40;99.90
21568;DHT22;10944;42.590;12.630;2022-09-09T00:22:30;20.50;99.90
21568;DHT22;10944;42.590;12.630;2022-09-09T00:25:11;20.40;99.90
21568;DHT22;10944;42.590;12.630;2022-09-09T00:27:45;20.50;99.90
21568;DHT22;10944;42.590;12.630;2022-09-09T00:30:25;20.50;99.90
21568;DHT22;10944;42.590;12.630;2022-09-09T00:32:59;20.50;99.90
21568;DHT22;10944;42.590;12.630;2022-09-09T00:35:38;20.50;99.90
21568;DHT22;10944;42.590;12.630;2022-09-09T00:38:15;20.50;99.90
21568;DHT22;10944;42.590;12.630;2022-09-09T00:41:03;20.60;99.90
21568;DHT22;10944;42.590;12.630;2022-09-09T00:43:37;20.60;99.90
21568;DHT22;10944;42.590;12.630;2022-09-09T00:56:27;20.20;99.90
21568;DHT22;10944;42.590;12.630;2022-09-09T01:01:36;20.30;99.90
21568;DHT22;10944;42.590;12.630;2022-09-09T01:04:07;20.20;99.90
21568;DHT22;10944;42.590;12.630;2022-09-09T01:06:37;20.10;99.90
21568;DHT22;10944;42.590;12.630;2022-09-09T01:09:24;20.10;99.90
21568;DHT22;10944;42.590;12.630;2022-09-09T01:17:31;19.90;99.90
21568;DHT22;10944;42.590;12.630;2022-09-09T01:20:13;20.00;99.90
21568;DHT22;10944;42.590;12.630;2022-09-09T01:25:28;20.10;99.90
21568;DHT22;10944;42.590;12.630;2022-09-09T01:28:08;20.00;99.90
21568;DHT22;10944;42.590;12.630;2022-09-09T01:30:38;19.90;99.90
21568;DHT22;10944;42.590;12.630;2022-09-09T01:33:04;20.00;99.90
21568;DHT22;10944;42.590;12.630;2022-09-09T01:37:59;20.10;99.90
21568;DHT22;10944;42.590;12.630;2022-09-09T01:40:26;20.20;99.90
21568;DHT22;10944;42.590;12.630;2022-09-09T01:42:52;20.10;99.90
21568;DHT22;10944;42.590;12.630;2022-09-09T01:45:19;20.10;99.90
21568;DHT22;10944;42.590;12.630;2022-09-09T01:47:45;20.10;99.90
21568;DHT22;10944;42.590;12.630;2022-09-09T01:50:14;20.30;99.90
21568;DHT22;10944;42.590;12.630;2022-09-09T01:52:40;20.30;99.90
21568;DHT22;10944;42.590;12.630;2022-09-09T01:55:08;20.20;99.90
21568;DHT22;10944;42.590;12.630;2022-09-09T02:00:25;20.10;99.90
21568;DHT22;10944;42.590;12.630;2022-09-09T02:03:02;20.00;99.90
21568;DHT22;10944;42.590;12.630;2022-09-09T02:05:43;20.00;99.90
21568;DHT22;10944;42.590;12.630;2022-09-09T02:08:20;19.90;99.90
21568;DHT22;10944;42.590;12.630;2022-09-09T02:11:17;19.80;99.90
21568;DHT22;10944;42.590;12.630;2022-09-09T02:13:45;19.80;99.90
21568;DHT22;10944;42.590;12.630;2022-09-09T02:16:23;19.80;99.90
21568;DHT22;10944;42.590;12.630;2022-09-09T02:19:02;19.80;99.90
21568;DHT22;10944;42.590;12.630;2022-09-09T02:21:32;19.90;99.90
21568;DHT22;10944;42.590;12.630;2022-09-09T02:24:03;20.00;99.90
21568;DHT22;10944;42.590;12.630;2022-09-09T02:26:34;19.90;99.90
21568;DHT22;10944;42.590;12.630;2022-09-09T02:29:03;19.90;99.90
21568;DHT22;10944;42.590;12.630;2022-09-09T02:31:31;20.00;99.90
21568;DHT22;10944;42.590;12.630;2022-09-09T02:34:01;20.00;99.90
21568;DHT22;10944;42.590;12.630;2022-09-09T02:36:31;20.00;99.90
21568;DHT22;10944;42.590;12.630;2022-09-09T02:39:00;20.10;99.90
21568;DHT22;10944;42.590;12.630;2022-09-09T02:41:33;20.10;99.90
21568;DHT22;10944;42.590;12.630;2022-09-09T02:44:01;20.10;99.90
21568;DHT22;10944;42.590;12.630;2022-09-09T02:46:33;20.10;99.90
21568;DHT22;10944;42.590;12.630;2022-09-09T02:49:06;20.00;99.90
21568;DHT22;10944;42.590;12.630;2022-09-09T02:51:56;20.00;99.90
21568;DHT22;10944;42.590;12.630;2022-09-09T02:54:29;20.00;99.90
21568;DHT22;10944;42.590;12.630;2022-09-09T02:57:11;20.10;99.90
21568;DHT22;10944;42.590;12.630;2022-09-09T02:59:38;20.10;99.90
21568;DHT22;10944;42.590;12.630;2022-09-09T03:02:04;20.10;99.90
21568;DHT22;10944;42.590;12.630;2022-09-09T03:04:30;20.20;99.90
21568;DHT22;10944;42.590;12.630;2022-09-09T03:06:57;20.10;99.90
21568;DHT22;10944;42.590;12.630;2022-09-09T03:09:24;20.20;99.90
21568;DHT22;10944;42.590;12.630;2022-09-09T03:11:51;20.10;99.90
21568;DHT22;10944;42.590;12.630;2022-09-09T03:14:17;20.30;99.90
21568;DHT22;10944;42.590;12.630;2022-09-09T03:16:47;20.30;99.90
21568;DHT22;10944;42.590;12.630;2022-09-09T03:19:12;20.40;99.90
21568;DHT22;10944;42.590;12.630;2022-09-09T03:21:38;20.30;99.90
21568;DHT22;10944;42.590;12.630;2022-09-09T03:24:04;20.30;99.90
21568;DHT22;10944;42.590;12.630;2022-09-09T03:26:30;20.40;99.90
21568;DHT22;10944;42.590;12.630;2022-09-09T03:28:57;20.50;99.90
21568;DHT22;10944;42.590;12.630;2022-09-09T03:31:22;20.50;99.90
21568;DHT22;10944;42.590;12.630;2022-09-09T03:33:48;20.50;99.90
21568;DHT22;10944;42.590;12.630;2022-09-09T03:36:15;20.50;99.90
21568;DHT22;10944;42.590;12.630;2022-09-09T03:38:41;20.50;99.90
21568;DHT22;10944;42.590;12.630;2022-09-09T03:41:07;20.50;99.90
21568;DHT22;10944;42.590;12.630;2022-09-09T03:43:33;20.60;99.90
21568;DHT22;10944;42.590;12.630;2022-09-09T03:45:59;20.60;99.90
21568;DHT22;10944;42.590;12.630;2022-09-09T03:48:25;20.60;99.90
21568;DHT22;10944;42.590;12.630;2022-09-09T03:50:54;20.70;99.90
21568;DHT22;10944;42.590;12.630;2022-09-09T03:53:22;20.80;99.90
21568;DHT22;10944;42.590;12.630;2022-09-09T03:55:51;20.90;99.90
21568;DHT22;10944;42.590;12.630;2022-09-09T03:58:21;20.90;99.90
21568;DHT22;10944;42.590;12.630;2022-09-09T04:01:04;20.90;99.90
21568;DHT22;10944;42.590;12.630;2022-09-09T04:03:30;21.00;99.90
21568;DHT22;10944;42.590;12.630;2022-09-09T04:05:58;21.00;99.90
21568;DHT22;10944;42.590;12.630;2022-09-09T04:08:25;21.00;99.90
21568;DHT22;10944;42.590;12.630;2022-09-09T04:10:51;21.00;99.90
21568;DHT22;10944;42.590;12.630;2022-09-09T04:13:18;20.90;99.90
21568;DHT22;10944;42.590;12.630;2022-09-09T04:15:51;21.00;99.90
21568;DHT22;10944;42.590;12.630;2022-09-09T04:18:17;21.00;99.90
21568;DHT22;10944;42.590;12.630;2022-09-09T04:20:49;21.00;99.90
21568;DHT22;10944;42.590;12.630;2022-09-09T04:23:16;21.00;99.90
21568;DHT22;10944;42.590;12.630;2022-09-09T04:25:49;21.00;99.90
21568;DHT22;10944;42.590;12.630;2022-09-09T04:28:16;20.90;99.90
21568;DHT22;10944;42.590;12.630;2022-09-09T04:30:42;21.00;99.90
21568;DHT22;10944;42.590;12.630;2022-09-09T04:33:09;21.00;99.90
21568;DHT22;10944;42.590;12.630;2022-09-09T04:35:38;20.90;99.90
21568;DHT22;10944;42.590;12.630;2022-09-09T04:38:05;20.90;99.90
21568;DHT22;10944;42.590;12.630;2022-09-09T04:40:33;20.90;99.90
21568;DHT22;10944;42.590;12.630;2022-09-09T04:43:02;21.00;99.90
21568;DHT22;10944;42.590;12.630;2022-09-09T04:45:31;21.00;99.90
21568;DHT22;10944;42.590;12.630;2022-09-09T04:47:57;21.00;99.90
21568;DHT22;10944;42.590;12.630;2022-09-09T04:50:23;21.00;99.90
21568;DHT22;10944;42.590;12.630;2022-09-09T04:52:49;21.00;99.90
21568;DHT22;10944;42.590;12.630;2022-09-09T04:55:14;21.00;99.90
21568;DHT22;10944;42.590;12.630;2022-09-09T04:57:41;21.10;99.90
21568;DHT22;10944;42.590;12.630;2022-09-09T05:00:07;21.20;99.90
21568;DHT22;10944;42.590;12.630;2022-09-09T05:02:37;21.10;99.90
21568;DHT22;10944;42.590;12.630;2022-09-09T05:05:04;21.10;99.90
21568;DHT22;10944;42.590;12.630;2022-09-09T05:07:30;21.10;99.90
21568;DHT22;10944;42.590;12.630;2022-09-09T05:09:56;21.10;99.90
21568;DHT22;10944;42.590;12.630;2022-09-09T05:12:23;21.10;99.90
21568;DHT22;10944;42.590;12.630;2022-09-09T05:14:51;21.00;99.90
21568;DHT22;10944;42.590;12.630;2022-09-09T05:17:17;21.10;99.90
21568;DHT22;10944;42.590;12.630;2022-09-09T05:19:43;21.20;99.90
21568;DHT22;10944;42.590;12.630;2022-09-09T05:22:10;21.20;99.90
21568;DHT22;10944;42.590;12.630;2022-09-09T05:24:37;21.20;99.90
21568;DHT22;10944;42.590;12.630;2022-09-09T05:27:04;21.20;99.90
21568;DHT22;10944;42.590;12.630;2022-09-09T05:29:30;21.30;99.90
21568;DHT22;10944;42.590;12.630;2022-09-09T05:31:59;21.30;99.90
21568;DHT22;10944;42.590;12.630;2022-09-09T05:34:24;21.30;99.90
21568;DHT22;10944;42.590;12.630;2022-09-09T05:36:50;21.30;99.90
21568;DHT22;10944;42.590;12.630;2022-09-09T05:39:17;21.30;99.90
21568;DHT22;10944;42.590;12.630;2022-09-09T05:41:43;21.40;99.90
21568;DHT22;10944;42.590;12.630;2022-09-09T05:44:09;21.40;99.90
21568;DHT22;10944;42.590;12.630;2022-09-09T05:46:35;21.40;99.90
21568;DHT22;10944;42.590;12.630;2022-09-09T05:49:02;21.40;99.90
21568;DHT22;10944;42.590;12.630;2022-09-09T05:51:29;21.40;99.90
21568;DHT22;10944;42.590;12.630;2022-09-09T05:53:58;21.50;99.90
21568;DHT22;10944;42.590;12.630;2022-09-09T05:56:28;21.50;99.90
21568;DHT22;10944;42.590;12.630;2022-09-09T05:58:55;21.50;99.90
21568;DHT22;10944;42.590;12.630;2022-09-09T06:01:29;21.50;99.90
21568;DHT22;10944;42.590;12.630;2022-09-09T06:03:55;21.60;99.90
21568;DHT22;10944;42.590;12.630;2022-09-09T06:06:24;21.50;99.90
21568;DHT22;10944;42.590;12.630;2022-09-09T06:08:52;21.50;99.90
21568;DHT22;10944;42.590;12.630;2022-09-09T06:11:22;21.50;99.90
21568;DHT22;10944;42.590;12.630;2022-09-09T06:13:49;21.50;99.90
21568;DHT22;10944;42.590;12.630;2022-09-09T06:16:20;21.50;99.90
21568;DHT22;10944;42.590;12.630;2022-09-09T06:18:48;21.50;99.90
21568;DHT22;10944;42.590;12.630;2022-09-09T06:21:18;21.60;99.90
21568;DHT22;10944;42.590;12.630;2022-09-09T06:23:45;21.70;99.90
21568;DHT22;10944;42.590;12.630;2022-09-09T06:26:20;21.90;99.90
21568;DHT22;10944;42.590;12.630;2022-09-09T06:28:47;22.00;99.90
21568;DHT22;10944;42.590;12.630;2022-09-09T06:31:14;22.00;99.90
21568;DHT22;10944;42.590;12.630;2022-09-09T06:33:43;22.10;99.90
21568;DHT22;10944;42.590;12.630;2022-09-09T06:36:15;22.20;99.90
21568;DHT22;10944;42.590;12.630;2022-09-09T06:38:42;22.10;99.90
21568;DHT22;10944;42.590;12.630;2022-09-09T06:41:10;22.00;99.90
21568;DHT22;10944;42.590;12.630;2022-09-09T06:43:36;22.10;99.90
21568;DHT22;10944;42.590;12.630;2022-09-09T06:46:21;22.10;99.90
21568;DHT22;10944;42.590;12.630;2022-09-09T06:48:47;22.20;99.90
21568;DHT22;10944;42.590;12.630;2022-09-09T06:53:41;22.40;99.90
21568;DHT22;10944;42.590;12.630;2022-09-09T06:58:40;22.90;99.90
21568;DHT22;10944;42.590;12.630;2022-09-09T07:01:13;23.20;99.90
21568;DHT22;10944;42.590;12.630;2022-09-09T07:03:40;23.50;99.90
21568;DHT22;10944;42.590;12.630;2022-09-09T07:06:08;23.80;99.90
21568;DHT22;10944;42.590;12.630;2022-09-09T07:08:34;23.70;99.90
21568;DHT22;10944;42.590;12.630;2022-09-09T07:11:04;23.80;99.90
21568;DHT22;10944;42.590;12.630;2022-09-09T07:13:30;23.90;99.90
21568;DHT22;10944;42.590;12.630;2022-09-09T07:16:07;23.70;99.90
21568;DHT22;10944;42.590;12.630;2022-09-09T07:18:33;23.80;99.90
21568;DHT22;10944;42.590;12.630;2022-09-09T07:21:01;23.80;99.90
21568;DHT22;10944;42.590;12.630;2022-09-09T07:23:28;23.90;99.90
21568;DHT22;10944;42.590;12.630;2022-09-09T07:25:54;24.10;99.90
21568;DHT22;10944;42.590;12.630;2022-09-09T07:28:20;24.00;99.90
21568;DHT22;10944;42.590;12.630;2022-09-09T07:30:57;23.90;99.90
21568;DHT22;10944;42.590;12.630;2022-09-09T07:33:24;23.90;99.90
21568;DHT22;10944;42.590;12.630;2022-09-09T07:35:51;24.00;99.90
21568;DHT22;10944;42.590;12.630;2022-09-09T07:38:17;24.10;99.90
21568;DHT22;10944;42.590;12.630;2022-09-09T07:40:43;24.00;99.90
21568;DHT22;10944;42.590;12.630;2022-09-09T07:43:09;23.90;99.90
21568;DHT22;10944;42.590;12.630;2022-09-09T07:45:35;24.00;99.90
21568;DHT22;10944;42.590;12.630;2022-09-09T07:48:01;24.20;99.90
21568;DHT22;10944;42.590;12.630;2022-09-09T07:50:28;24.30;99.90
21568;DHT22;10944;42.590;12.630;2022-09-09T07:52:54;24.50;99.90
21568;DHT22;10944;42.590;12.630;2022-09-09T07:55:22;24.80;99.90
21568;DHT22;10944;42.590;12.630;2022-09-09T07:57:53;25.10;99.90
21568;DHT22;10944;42.590;12.630;2022-09-09T08:00:19;25.20;99.90
21568;DHT22;10944;42.590;12.630;2022-09-09T08:02:47;25.30;99.90
21568;DHT22;10944;42.590;12.630;2022-09-09T08:05:13;25.50;99.90
21568;DHT22;10944;42.590;12.630;2022-09-09T08:07:40;25.80;99.90
21568;DHT22;10944;42.590;12.630;2022-09-09T08:10:06;26.00;99.90
21568;DHT22;10944;42.590;12.630;2022-09-09T08:12:32;26.00;99.90
21568;DHT22;10944;42.590;12.630;2022-09-09T08:14:58;26.00;99.90
21568;DHT22;10944;42.590;12.630;2022-09-09T08:17:24;26.00;99.90
21568;DHT22;10944;42.590;12.630;2022-09-09T08:19:49;26.00;99.90
21568;DHT22;10944;42.590;12.630;2022-09-09T08:22:15;25.90;99.90
21568;DHT22;10944;42.590;12.630;2022-09-09T08:24:41;25.80;99.90
21568;DHT22;10944;42.590;12.630;2022-09-09T08:27:07;26.00;99.90
21568;DHT22;10944;42.590;12.630;2022-09-09T08:29:32;26.00;99.90
21568;DHT22;10944;42.590;12.630;2022-09-09T08:31:58;26.00;99.90
21568;DHT22;10944;42.590;12.630;2022-09-09T08:34:25;25.90;99.90
21568;DHT22;10944;42.590;12.630;2022-09-09T08:36:52;25.90;99.90
21568;DHT22;10944;42.590;12.630;2022-09-09T08:39:20;25.90;99.90
21568;DHT22;10944;42.590;12.630;2022-09-09T08:41:53;26.00;99.90
21568;DHT22;10944;42.590;12.630;2022-09-09T08:57:58;26.10;99.90
21568;DHT22;10944;42.590;12.630;2022-09-09T09:00:35;26.00;99.90
21568;DHT22;10944;42.590;12.630;2022-09-09T09:08:54;26.00;99.90
21568;DHT22;10944;42.590;12.630;2022-09-09T09:11:23;26.10;99.90
21568;DHT22;10944;42.590;12.630;2022-09-09T09:14:03;26.10;99.90
21568;DHT22;10944;42.590;12.630;2022-09-09T09:16:42;26.10;99.90
21568;DHT22;10944;42.590;12.630;2022-09-09T09:19:15;26.30;99.90
21568;DHT22;10944;42.590;12.630;2022-09-09T09:21:44;26.30;99.90
21568;DHT22;10944;42.590;12.630;2022-09-09T09:24:35;26.40;99.90
21568;DHT22;10944;42.590;12.630;2022-09-09T09:27:16;26.80;99.90
21568;DHT22;10944;42.590;12.630;2022-09-09T09:29:44;26.80;99.90
21568;DHT22;10944;42.590;12.630;2022-09-09T09:32:17;27.00;99.90
21568;DHT22;10944;42.590;12.630;2022-09-09T09:34:50;26.80;99.90
21568;DHT22;10944;42.590;12.630;2022-09-09T09:37:33;26.70;99.90
21568;DHT22;10944;42.590;12.630;2022-09-09T09:40:15;26.80;99.90
21568;DHT22;10944;42.590;12.630;2022-09-09T09:42:53;26.70;99.90
21568;DHT22;10944;42.590;12.630;2022-09-09T09:45:35;26.70;99.90
21568;DHT22;10944;42.590;12.630;2022-09-09T09:48:11;26.90;99.90
21568;DHT22;10944;42.590;12.630;2022-09-09T09:56:00;27.40;99.90
21568;DHT22;10944;42.590;12.630;2022-09-09T09:58:31;27.20;99.90
21568;DHT22;10944;42.590;12.630;2022-09-09T10:01:00;27.20;99.90
21568;DHT22;10944;42.590;12.630;2022-09-09T10:03:27;27.20;99.90
21568;DHT22;10944;42.590;12.630;2022-09-09T10:05:54;27.30;99.90
21568;DHT22;10944;42.590;12.630;2022-09-09T10:08:23;27.50;99.90
21568;DHT22;10944;42.590;12.630;2022-09-09T10:11:22;27.20;99.90
21568;DHT22;10944;42.590;12.630;2022-09-09T10:19:36;27.70;99.90
21568;DHT22;10944;42.590;12.630;2022-09-09T10:30:23;27.90;99.90
21568;DHT22;10944;42.590;12.630;2022-09-09T10:46:59;28.00;99.90
21568;DHT22;10944;42.590;12.630;2022-09-09T10:55:07;28.40;99.90
21568;DHT22;10944;42.590;12.630;2022-09-09T10:58:02;28.40;99.90
21568;DHT22;10944;42.590;12.630;2022-09-09T11:00:42;28.10;99.90
21568;DHT22;10944;42.590;12.630;2022-09-09T11:03:30;28.00;99.90
21568;DHT22;10944;42.590;12.630;2022-09-09T11:06:19;28.20;99.90
21568;DHT22;10944;42.590;12.630;2022-09-09T11:08:47;28.40;99.90
21568;DHT22;10944;42.590;12.630;2022-09-09T11:11:37;28.60;99.90
21568;DHT22;10944;42.590;12.630;2022-09-09T11:14:19;28.60;99.90
21568;DHT22;10944;42.590;12.630;2022-09-09T11:16:56;28.50;99.90
21568;DHT22;10944;42.590;12.630;2022-09-09T11:19:30;28.70;99.90
21568;DHT22;10944;42.590;12.630;2022-09-09T11:22:08;29.00;99.90
21568;DHT22;10944;42.590;12.630;2022-09-09T11:24:58;29.40;99.90
21568;DHT22;10944;42.590;12.630;2022-09-09T11:27:27;29.40;99.90
21568;DHT22;10944;42.590;12.630;2022-09-09T11:30:14;29.20;99.90
21568;DHT22;10944;42.590;12.630;2022-09-09T11:38:46;29.20;99.50
21568;DHT22;10944;42.590;12.630;2022-09-09T11:41:06;29.00;97.40
21568;DHT22;10944;42.590;12.630;2022-09-09T11:43:45;28.60;98.70
21568;DHT22;10944;42.590;12.630;2022-09-09T11:46:14;28.40;99.00
21568;DHT22;10944;42.590;12.630;2022-09-09T11:48:45;28.10;99.30
21568;DHT22;10944;42.590;12.630;2022-09-09T11:54:00;28.30;99.90
21568;DHT22;10944;42.590;12.630;2022-09-09T11:56:44;28.70;99.90
21568;DHT22;10944;42.590;12.630;2022-09-09T11:59:25;28.80;99.90
21568;DHT22;10944;42.590;12.630;2022-09-09T12:02:24;29.00;99.90
21568;DHT22;10944;42.590;12.630;2022-09-09T12:05:21;29.40;99.20
21568;DHT22;10944;42.590;12.630;2022-09-09T12:07:57;29.50;99.10
21568;DHT22;10944;42.590;12.630;2022-09-09T12:10:33;29.60;99.10
21568;DHT22;10944;42.590;12.630;2022-09-09T12:13:21;29.30;99.80
21568;DHT22;10944;42.590;12.630;2022-09-09T12:15:58;29.00;99.50
21568;DHT22;10944;42.590;12.630;2022-09-09T12:21:02;28.50;99.00
21568;DHT22;10944;42.590;12.630;2022-09-09T12:23:40;28.30;99.80
21568;DHT22;10944;42.590;12.630;2022-09-09T12:29:23;28.70;98.60
21568;DHT22;10944;42.590;12.630;2022-09-09T12:31:59;28.50;98.30
21568;DHT22;10944;42.590;12.630;2022-09-09T12:37:02;28.60;96.20
21568;DHT22;10944;42.590;12.630;2022-09-09T12:39:35;28.50;93.90
21568;DHT22;10944;42.590;12.630;2022-09-09T12:42:03;28.20;91.80
21568;DHT22;10944;42.590;12.630;2022-09-09T12:44:30;28.10;91.40
21568;DHT22;10944;42.590;12.630;2022-09-09T12:47:00;28.20;93.40
21568;DHT22;10944;42.590;12.630;2022-09-09T12:49:34;28.60;91.60
21568;DHT22;10944;42.590;12.630;2022-09-09T12:54:47;29.10;87.20
21568;DHT22;10944;42.590;12.630;2022-09-09T12:57:14;29.00;86.70
21568;DHT22;10944;42.590;12.630;2022-09-09T12:59:42;28.90;87.50
21568;DHT22;10944;42.590;12.630;2022-09-09T13:02:25;28.80;86.90
21568;DHT22;10944;42.590;12.630;2022-09-09T13:04:52;28.80;85.90
21568;DHT22;10944;42.590;12.630;2022-09-09T13:07:20;28.80;86.70
21568;DHT22;10944;42.590;12.630;2022-09-09T13:09:48;28.70;85.10
21568;DHT22;10944;42.590;12.630;2022-09-09T13:12:19;28.70;86.70
21568;DHT22;10944;42.590;12.630;2022-09-09T13:14:54;28.70;83.00
21568;DHT22;10944;42.590;12.630;2022-09-09T13:17:24;28.70;85.30
21568;DHT22;10944;42.590;12.630;2022-09-09T13:19:51;28.60;84.40
21568;DHT22;10944;42.590;12.630;2022-09-09T13:22:37;28.60;85.90
21568;DHT22;10944;42.590;12.630;2022-09-09T13:25:17;28.70;84.10
21568;DHT22;10944;42.590;12.630;2022-09-09T13:27:53;28.70;83.80
21568;DHT22;10944;42.590;12.630;2022-09-09T13:30:32;28.70;82.80
21568;DHT22;10944;42.590;12.630;2022-09-09T13:33:35;28.60;82.60
21568;DHT22;10944;42.590;12.630;2022-09-09T13:38:33;28.20;84.40
21568;DHT22;10944;42.590;12.630;2022-09-09T13:41:05;28.20;82.80
21568;DHT22;10944;42.590;12.630;2022-09-09T13:43:37;28.30;82.90
21568;DHT22;10944;42.590;12.630;2022-09-09T13:49:00;28.10;83.30
21568;DHT22;10944;42.590;12.630;2022-09-09T13:54:13;28.20;81.10
21568;DHT22;10944;42.590;12.630;2022-09-09T13:56:40;28.20;82.10
21568;DHT22;10944;42.590;12.630;2022-09-09T13:59:14;28.30;85.00
21568;DHT22;10944;42.590;12.630;2022-09-09T14:01:40;28.30;82.20
21568;DHT22;10944;42.590;12.630;2022-09-09T14:04:06;28.30;83.40
21568;DHT22;10944;42.590;12.630;2022-09-09T14:06:33;28.40;84.70
21568;DHT22;10944;42.590;12.630;2022-09-09T14:09:00;28.30;84.20
21568;DHT22;10944;42.590;12.630;2022-09-09T14:11:26;28.30;84.20
21568;DHT22;10944;42.590;12.630;2022-09-09T14:13:52;28.20;84.10
21568;DHT22;10944;42.590;12.630;2022-09-09T14:16:18;28.30;85.40
21568;DHT22;10944;42.590;12.630;2022-09-09T14:18:44;28.30;86.10
21568;DHT22;10944;42.590;12.630;2022-09-09T14:21:11;28.20;85.60
21568;DHT22;10944;42.590;12.630;2022-09-09T14:23:37;28.20;87.60
21568;DHT22;10944;42.590;12.630;2022-09-09T14:26:07;28.20;86.40
21568;DHT22;10944;42.590;12.630;2022-09-09T14:28:33;28.20;86.40
21568;DHT22;10944;42.590;12.630;2022-09-09T14:31:01;28.20;85.40
21568;DHT22;10944;42.590;12.630;2022-09-09T14:33:27;28.10;84.80
21568;DHT22;10944;42.590;12.630;2022-09-09T14:36:01;28.00;84.60
21568;DHT22;10944;42.590;12.630;2022-09-09T14:38:32;28.00;87.60
21568;DHT22;10944;42.590;12.630;2022-09-09T14:40:59;28.10;89.20
21568;DHT22;10944;42.590;12.630;2022-09-09T14:43:27;28.00;86.90
21568;DHT22;10944;42.590;12.630;2022-09-09T14:45:53;28.00;85.70
21568;DHT22;10944;42.590;12.630;2022-09-09T14:48:19;27.90;85.70
21568;DHT22;10944;42.590;12.630;2022-09-09T14:50:44;27.90;86.70
21568;DHT22;10944;42.590;12.630;2022-09-09T14:53:10;27.90;87.50
21568;DHT22;10944;42.590;12.630;2022-09-09T14:55:36;27.90;87.50
21568;DHT22;10944;42.590;12.630;2022-09-09T14:58:03;27.90;87.40
21568;DHT22;10944;42.590;12.630;2022-09-09T15:00:29;27.90;87.20
21568;DHT22;10944;42.590;12.630;2022-09-09T15:02:55;27.80;86.30
21568;DHT22;10944;42.590;12.630;2022-09-09T15:05:21;27.80;85.80
21568;DHT22;10944;42.590;12.630;2022-09-09T15:07:47;27.80;86.30
21568;DHT22;10944;42.590;12.630;2022-09-09T15:10:16;27.80;86.30
21568;DHT22;10944;42.590;12.630;2022-09-09T15:12:43;27.70;86.30
21568;DHT22;10944;42.590;12.630;2022-09-09T15:15:09;27.70;86.30
21568;DHT22;10944;42.590;12.630;2022-09-09T15:17:35;27.70;87.00
21568;DHT22;10944;42.590;12.630;2022-09-09T15:20:02;27.70;87.90
21568;DHT22;10944;42.590;12.630;2022-09-09T15:22:28;27.60;88.00
21568;DHT22;10944;42.590;12.630;2022-09-09T15:24:54;27.40;88.20
21568;DHT22;10944;42.590;12.630;2022-09-09T15:27:20;27.20;89.00
21568;DHT22;10944;42.590;12.630;2022-09-09T15:29:45;27.20;90.30
21568;DHT22;10944;42.590;12.630;2022-09-09T15:32:12;27.20;90.20
21568;DHT22;10944;42.590;12.630;2022-09-09T15:34:37;27.30;90.00
21568;DHT22;10944;42.590;12.630;2022-09-09T15:37:03;27.30;89.30
21568;DHT22;10944;42.590;12.630;2022-09-09T15:39:29;27.30;89.80
21568;DHT22;10944;42.590;12.630;2022-09-09T15:41:55;27.30;90.30
21568;DHT22;10944;42.590;12.630;2022-09-09T15:44:23;27.40;90.50
21568;DHT22;10944;42.590;12.630;2022-09-09T15:46:52;27.50;90.80
21568;DHT22;10944;42.590;12.630;2022-09-09T15:49:25;27.60;90.10
21568;DHT22;10944;42.590;12.630;2022-09-09T15:51:56;27.50;91.10
21568;DHT22;10944;42.590;12.630;2022-09-09T15:54:24;27.60;91.20
21568;DHT22;10944;42.590;12.630;2022-09-09T15:56:55;27.50;91.10
21568;DHT22;10944;42.590;12.630;2022-09-09T15:59:22;27.50;91.20
21568;DHT22;10944;42.590;12.630;2022-09-09T16:01:48;27.40;91.40
21568;DHT22;10944;42.590;12.630;2022-09-09T16:04:17;27.30;90.80
21568;DHT22;10944;42.590;12.630;2022-09-09T16:06:50;27.30;91.40
21568;DHT22;10944;42.590;12.630;2022-09-09T16:09:16;27.20;91.90
21568;DHT22;10944;42.590;12.630;2022-09-09T16:11:41;27.10;91.50
21568;DHT22;10944;42.590;12.630;2022-09-09T16:14:07;27.10;91.80
21568;DHT22;10944;42.590;12.630;2022-09-09T16:16:34;27.00;92.60
21568;DHT22;10944;42.590;12.630;2022-09-09T16:19:04;26.80;91.90
21568;DHT22;10944;42.590;12.630;2022-09-09T16:21:42;26.70;92.40
21568;DHT22;10944;42.590;12.630;2022-09-09T16:24:10;26.60;92.90
21568;DHT22;10944;42.590;12.630;2022-09-09T16:26:40;26.50;92.80
21568;DHT22;10944;42.590;12.630;2022-09-09T16:29:06;26.50;92.60
21568;DHT22;10944;42.590;12.630;2022-09-09T16:31:32;26.40;92.90
21568;DHT22;10944;42.590;12.630;2022-09-09T16:33:58;26.30;93.10
21568;DHT22;10944;42.590;12.630;2022-09-09T16:36:26;26.20;93.20
21568;DHT22;10944;42.590;12.630;2022-09-09T16:38:54;26.20;93.00
21568;DHT22;10944;42.590;12.630;2022-09-09T16:41:24;26.00;93.40
21568;DHT22;10944;42.590;12.630;2022-09-09T16:43:58;26.00;93.10
21568;DHT22;10944;42.590;12.630;2022-09-09T16:46:26;25.90;93.70
21568;DHT22;10944;42.590;12.630;2022-09-09T16:48:53;25.90;93.90
21568;DHT22;10944;42.590;12.630;2022-09-09T16:51:29;25.80;94.20
21568;DHT22;10944;42.590;12.630;2022-09-09T16:53:55;25.70;93.90
21568;DHT22;10944;42.590;12.630;2022-09-09T16:56:25;25.60;94.60
21568;DHT22;10944;42.590;12.630;2022-09-09T16:58:54;25.50;94.10
21568;DHT22;10944;42.590;12.630;2022-09-09T17:01:21;25.40;95.00
21568;DHT22;10944;42.590;12.630;2022-09-09T17:03:47;25.20;95.10
21568;DHT22;10944;42.590;12.630;2022-09-09T17:06:17;25.10;95.40
21568;DHT22;10944;42.590;12.630;2022-09-09T17:08:42;25.00;95.60
21568;DHT22;10944;42.590;12.630;2022-09-09T17:11:15;24.90;96.20
21568;DHT22;10944;42.590;12.630;2022-09-09T17:13:42;24.70;96.10
21568;DHT22;10944;42.590;12.630;2022-09-09T17:16:09;24.60;97.00
21568;DHT22;10944;42.590;12.630;2022-09-09T17:18:36;24.40;98.30
21568;DHT22;10944;42.590;12.630;2022-09-09T17:21:04;24.20;99.00
21568;DHT22;10944;42.590;12.630;2022-09-09T17:23:32;24.10;99.60
21568;DHT22;10944;42.590;12.630;2022-09-09T17:25:59;24.00;98.40
21568;DHT22;10944;42.590;12.630;2022-09-09T17:28:26;23.90;97.90
21568;DHT22;10944;42.590;12.630;2022-09-09T17:30:57;24.00;97.20
21568;DHT22;10944;42.590;12.630;2022-09-09T17:33:24;24.00;96.40
21568;DHT22;10944;42.590;12.630;2022-09-09T17:35:51;24.10;96.10
21568;DHT22;10944;42.590;12.630;2022-09-09T17:38:17;24.10;96.60